Time;durP1;ratioP1;P1;durP2;ratioP2;P2;SDS_P1;SDS_P2;PMS_P1;PMS_P2;Temp;Humidity;BMP_temperature;BMP_pressure;BME280_temperature;BME280_humidity;BME280_pressure;Samples;Min_cycle;Max_cycle;Signal;HPM_P1;HPM_P2
2021/09/01 00:01:29;;;;;;;28.83;8.05;;;;;;;13.18;100.00;101535.84;5052315;28;20060;-84
2021/09/01 00:03:54;;;;;;;19.33;6.60;;;;;;;13.24;100.00;101546.19;5053562;28;20032;-84
2021/09/01 00:06:20;;;;;;;16.48;7.18;;;;;;;13.27;100.00;101543.56;5052460;28;20090;-84
2021/09/01 00:08:50;;;;;;;26.67;7.03;;;;;;;13.27;100.00;101551.38;5053523;28;20104;-84
2021/09/01 00:11:15;;;;;;;24.67;7.57;;;;;;;13.25;100.00;101537.53;5052412;28;20018;-84
2021/09/01 00:13:41;;;;;;;24.63;7.97;;;;;;;13.25;100.00;101547.97;5053050;28;20107;-84
2021/09/01 00:16:06;;;;;;;25.10;8.05;;;;;;;13.24;100.00;101551.41;5053553;28;20117;-84
2021/09/01 00:18:31;;;;;;;23.08;7.43;;;;;;;13.24;100.00;101552.28;5053756;28;20029;-84
2021/09/01 00:20:56;;;;;;;20.73;8.00;;;;;;;13.27;100.00;101556.59;5053833;28;20057;-84
2021/09/01 00:23:22;;;;;;;25.02;8.73;;;;;;;13.28;100.00;101553.13;5053543;28;20396;-84
2021/09/01 00:25:48;;;;;;;25.33;9.20;;;;;;;13.31;100.00;101559.16;5053652;28;20021;-84
2021/09/01 00:28:13;;;;;;;25.02;8.98;;;;;;;13.31;100.00;101560.91;5052498;28;20033;-84
2021/09/01 00:30:38;;;;;;;23.52;8.23;;;;;;;13.31;100.00;101553.09;5053896;28;20549;-84
2021/09/01 00:33:04;;;;;;;26.58;8.75;;;;;;;13.28;100.00;101554.00;5055579;28;20021;-84
2021/09/01 00:35:29;;;;;;;21.73;9.40;;;;;;;13.22;100.00;101561.00;5057577;28;20029;-84
2021/09/01 00:37:54;;;;;;;22.55;8.25;;;;;;;13.22;100.00;101561.84;5057512;28;20025;-84
2021/09/01 00:40:19;;;;;;;22.60;11.40;;;;;;;13.21;100.00;101567.06;5058243;28;20025;-84
2021/09/01 00:42:45;;;;;;;23.33;9.73;;;;;;;13.23;100.00;101563.56;5057809;28;20358;-84
2021/09/01 00:45:10;;;;;;;23.92;9.50;;;;;;;13.24;100.00;101559.22;5056386;28;20032;-84
2021/09/01 00:47:37;;;;;;;19.92;9.55;;;;;;;13.18;100.00;101564.50;5057464;28;20544;-84
2021/09/01 00:50:07;;;;;;;21.48;9.35;;;;;;;13.20;100.00;101565.34;5057184;28;20033;-84
2021/09/01 00:52:38;;;;;;;24.55;9.93;;;;;;;13.18;100.00;101561.91;5057662;28;20131;-84
2021/09/01 00:55:04;;;;;;;21.70;9.45;;;;;;;13.14;100.00;101561.94;5056649;28;20032;-84
2021/09/01 00:57:30;;;;;;;18.25;8.27;;;;;;;13.16;100.00;101558.47;5058928;28;20029;-84
2021/09/01 00:59:56;;;;;;;27.40;10.20;;;;;;;13.16;100.00;101561.06;5060434;28;20052;-84
2021/09/01 01:02:22;;;;;;;24.20;10.18;;;;;;;13.18;100.00;101564.50;5056575;28;20445;-84
2021/09/01 01:04:47;;;;;;;28.27;11.13;;;;;;;13.13;100.00;101568.03;5056528;28;20021;-84
2021/09/01 01:07:12;;;;;;;30.67;11.23;;;;;;;13.15;100.00;101557.63;5055083;28;20393;-84
2021/09/01 01:09:40;;;;;;;26.98;9.80;;;;;;;13.17;100.00;101565.41;5056353;28;20029;-84
2021/09/01 01:12:14;;;;;;;24.98;9.18;;;;;;;13.17;100.00;101562.78;5056369;28;20025;-84
2021/09/01 01:14:43;;;;;;;30.30;10.45;;;;;;;13.18;100.00;101561.91;5054831;28;20116;-84
2021/09/01 01:17:11;;;;;;;31.67;10.00;;;;;;;13.12;100.00;101566.31;5056371;28;20120;-84
2021/09/01 01:19:43;;;;;;;28.13;8.57;;;;;;;13.12;100.00;101562.88;5056132;28;20021;-84
2021/09/01 01:22:10;;;;;;;28.08;9.23;;;;;;;13.12;100.00;101560.25;5056659;28;20021;-84
2021/09/01 01:24:56;;;;;;;26.30;9.77;;;;;;;13.11;100.00;101571.53;5054851;28;20028;-84
2021/09/01 01:27:29;;;;;;;25.63;8.23;;;;;;;13.09;100.00;101568.97;5054869;28;20049;-84
2021/09/01 01:29:58;;;;;;;29.90;8.70;;;;;;;13.07;100.00;101569.88;5055958;28;20021;-84
2021/09/01 01:32:23;;;;;;;22.17;8.52;;;;;;;13.10;100.00;101568.06;5055924;28;20111;-84
2021/09/01 01:34:49;;;;;;;25.15;7.63;;;;;;;13.04;100.00;101569.91;5054676;28;20067;-84
2021/09/01 01:37:14;;;;;;;28.05;9.07;;;;;;;13.06;100.00;101578.56;5055908;28;20020;-84
2021/09/01 01:39:39;;;;;;;18.90;7.78;;;;;;;13.08;100.00;101571.56;5055834;28;20102;-84
2021/09/01 01:42:05;;;;;;;24.50;9.27;;;;;;;13.09;100.00;101576.78;5054533;28;20032;-84
2021/09/01 01:44:30;;;;;;;21.58;7.03;;;;;;;13.06;100.00;101568.16;5054655;28;20074;-85
2021/09/01 01:46:55;;;;;;;20.15;7.28;;;;;;;13.05;100.00;101562.09;5055711;28;20438;-84
2021/09/01 01:49:20;;;;;;;27.50;8.57;;;;;;;13.02;100.00;101561.22;5054473;28;20032;-84
2021/09/01 01:51:50;;;;;;;19.27;7.00;;;;;;;13.04;100.00;101568.16;5054332;28;20112;-84
2021/09/01 01:54:15;;;;;;;18.98;7.20;;;;;;;13.06;100.00;101563.78;5055542;28;20082;-84
2021/09/01 01:56:41;;;;;;;29.20;7.60;;;;;;;13.04;100.00;101564.69;5055210;28;20412;-84
2021/09/01 01:59:06;;;;;;;23.70;7.03;;;;;;;13.03;100.00;101569.03;5055412;28;20412;-84
2021/09/01 02:01:31;;;;;;;25.67;7.65;;;;;;;13.03;100.00;101569.03;5055125;28;20111;-84
2021/09/01 02:03:57;;;;;;;29.23;7.68;;;;;;;13.04;100.00;101570.75;5054260;28;20369;-84
2021/09/01 02:06:22;;;;;;;22.23;7.05;;;;;;;13.03;100.00;101568.19;5055278;28;20029;-85
2021/09/01 02:08:47;;;;;;;25.15;7.10;;;;;;;13.04;100.00;101565.53;5053833;28;20021;-85
2021/09/01 02:11:12;;;;;;;21.63;5.93;;;;;;;13.01;100.00;101567.34;5055058;28;20503;-84
2021/09/01 02:13:38;;;;;;;25.77;7.90;;;;;;;13.00;100.00;101563.00;5055326;28;20079;-84
2021/09/01 02:16:03;;;;;;;23.13;6.50;;;;;;;13.02;100.00;101567.34;5086222;22;20552;-86
2021/09/01 02:18:28;;;;;;;18.67;6.78;;;;;;;13.00;100.00;101561.28;5073936;28;20020;-86
2021/09/01 02:20:54;;;;;;;23.95;6.65;;;;;;;13.01;100.00;101564.72;5073450;28;20024;-86
2021/09/01 02:23:19;;;;;;;24.58;7.22;;;;;;;13.04;100.00;101559.47;5073292;28;20034;-86
2021/09/01 02:25:44;;;;;;;25.75;6.28;;;;;;;13.05;100.00;101556.88;5073213;28;20021;-86
2021/09/01 02:28:09;;;;;;;21.77;6.47;;;;;;;13.06;100.00;101562.94;5074666;28;20434;-86
2021/09/01 02:30:35;;;;;;;23.23;7.15;;;;;;;13.01;100.00;101562.97;5074621;28;20032;-86
2021/09/01 02:33:00;;;;;;;20.63;6.47;;;;;;;13.07;100.00;101570.72;5073125;28;20028;-86
2021/09/01 02:35:25;;;;;;;20.40;6.30;;;;;;;12.99;100.00;101556.94;5072994;28;20035;-86
2021/09/01 02:37:52;;;;;;;19.38;6.47;;;;;;;13.06;100.00;101569.00;5074602;28;20024;-86
2021/09/01 02:40:19;;;;;;;23.48;6.60;;;;;;;13.10;100.00;101570.69;5072914;28;20021;-86
2021/09/01 02:42:44;;;;;;;23.73;6.63;;;;;;;13.12;100.00;101574.13;5074155;28;20028;-86
2021/09/01 02:45:09;;;;;;;20.55;7.22;;;;;;;13.08;100.00;101574.19;5072756;28;20035;-86
2021/09/01 02:47:35;;;;;;;21.52;6.63;;;;;;;13.11;100.00;101569.78;5074044;28;20021;-86
2021/09/01 02:50:03;;;;;;;24.40;7.38;;;;;;;13.09;100.00;101568.97;5072762;28;20370;-86
2021/09/01 02:52:28;;;;;;;22.63;7.20;;;;;;;13.06;100.00;101566.41;5072686;28;20077;-86
2021/09/01 02:54:53;;;;;;;21.38;6.65;;;;;;;13.10;100.00;101562.88;5072348;28;20451;-85
2021/09/01 02:57:18;;;;;;;25.88;7.72;;;;;;;13.07;100.00;101560.31;5072394;28;20078;-86
2021/09/01 02:59:44;;;;;;;26.35;8.18;;;;;;;13.01;100.00;101557.78;5072692;28;20028;-86
2021/09/01 03:02:09;;;;;;;28.02;9.05;;;;;;;13.01;100.00;101559.53;5072523;28;20395;-86
2021/09/01 03:04:34;;;;;;;26.52;8.15;;;;;;;13.01;100.00;101555.16;5072786;28;20027;-86
2021/09/01 03:06:59;;;;;;;23.48;8.82;;;;;;;12.97;100.00;101558.69;5072378;28;20081;-86
2021/09/01 03:09:25;;;;;;;28.10;9.50;;;;;;;12.95;100.00;101550.03;5072433;28;20399;-86
2021/09/01 03:11:50;;;;;;;27.15;8.82;;;;;;;12.94;100.00;101550.94;5072277;28;20059;-87
2021/09/01 03:14:15;;;;;;;25.45;8.95;;;;;;;12.93;100.00;101554.41;5072578;28;20032;-87
2021/09/01 03:16:40;;;;;;;30.65;9.27;;;;;;;12.93;100.00;101550.94;5072201;28;20028;-86
2021/09/01 03:19:06;;;;;;;23.10;8.40;;;;;;;12.90;100.00;101554.47;5072348;28;20090;-87
2021/09/01 03:21:31;;;;;;;23.58;8.75;;;;;;;12.90;100.00;101552.72;5073601;28;20024;-87
2021/09/01 03:23:56;;;;;;;23.98;8.60;;;;;;;12.84;100.00;101546.72;5073488;28;20031;-87
2021/09/01 03:26:22;;;;;;;25.60;8.35;;;;;;;12.81;100.00;101547.59;5072112;28;20020;-86
2021/09/01 03:28:47;;;;;;;20.80;7.50;;;;;;;12.82;100.00;101551.94;5072408;28;20475;-86
2021/09/01 03:31:12;;;;;;;26.08;9.18;;;;;;;12.80;100.00;101551.06;5072097;28;20035;-86
2021/09/01 03:33:37;;;;;;;25.58;9.35;;;;;;;12.78;100.00;101554.59;5072568;28;20028;-86
2021/09/01 03:36:03;;;;;;;27.65;9.57;;;;;;;12.81;100.00;101557.16;5073473;28;20028;-86
2021/09/01 03:38:28;;;;;;;28.70;9.48;;;;;;;12.79;100.00;101558.91;5073350;28;20035;-86
2021/09/01 03:40:53;;;;;;;29.92;9.68;;;;;;;12.81;100.00;101557.16;5072158;28;20020;-86
2021/09/01 03:43:18;;;;;;;30.63;9.85;;;;;;;12.79;100.00;101561.53;5072147;28;20028;-86
2021/09/01 03:45:44;;;;;;;31.33;9.45;;;;;;;12.76;100.00;101564.16;5072097;28;20374;-86
2021/09/01 03:48:09;;;;;;;22.50;10.68;;;;;;;12.78;100.00;101558.06;5072069;28;20125;-86
2021/09/01 03:50:34;;;;;;;25.05;11.50;;;;;;;12.76;100.00;101558.94;5072134;28;20027;-86
2021/09/01 03:52:59;;;;;;;21.70;9.43;;;;;;;12.75;100.00;101562.44;5072250;28;20055;-86
2021/09/01 03:55:27;;;;;;;23.55;9.70;;;;;;;12.73;100.00;101559.84;5071835;28;20119;-86
2021/09/01 03:57:52;;;;;;;28.67;9.25;;;;;;;12.72;100.00;101562.47;5073184;28;20139;-86
2021/09/01 04:00:17;;;;;;;32.40;9.13;;;;;;;12.66;100.00;101558.19;5073235;28;20048;-86
2021/09/01 04:02:42;;;;;;;26.15;9.38;;;;;;;12.67;100.00;101565.97;5073149;28;20495;-86
2021/09/01 04:05:08;;;;;;;35.78;10.40;;;;;;;12.66;100.00;101564.25;5073254;28;20116;-85
2021/09/01 04:07:33;;;;;;;30.17;10.80;;;;;;;12.60;100.00;101569.53;5073055;28;20033;-86
2021/09/01 04:09:58;;;;;;;26.45;10.77;;;;;;;12.62;100.00;101566.88;5076990;28;20103;-86
2021/09/01 04:12:24;;;;;;;32.08;11.43;;;;;;;12.59;100.00;101570.41;5075864;28;20029;-86
2021/09/01 04:14:49;;;;;;;38.00;10.52;;;;;;;12.59;100.00;101570.41;5075814;28;20453;-86
2021/09/01 04:17:14;;;;;;;34.40;10.75;;;;;;;12.64;100.00;101578.16;5075609;28;20082;-86
2021/09/01 04:19:39;;;;;;;34.42;10.93;;;;;;;12.64;100.00;101583.38;5075681;28;20028;-86
2021/09/01 04:22:05;;;;;;;33.58;11.82;;;;;;;12.66;100.00;101574.66;5077121;28;20431;-86
2021/09/01 04:24:31;;;;;;;32.65;12.75;;;;;;;12.69;100.00;101575.53;5076398;28;20024;-86
2021/09/01 04:26:56;;;;;;;42.72;11.00;;;;;;;12.69;100.00;101576.38;5075644;28;20028;-86
2021/09/01 04:29:21;;;;;;;40.80;12.90;;;;;;;12.64;100.00;101571.22;5075496;28;20507;-86
2021/09/01 04:31:47;;;;;;;29.75;11.55;;;;;;;12.65;100.00;101577.28;5076858;28;20491;-85
2021/09/01 04:34:12;;;;;;;39.70;11.77;;;;;;;12.65;100.00;101578.16;5076849;28;20036;-86
2021/09/01 04:36:37;;;;;;;32.63;11.20;;;;;;;12.61;100.00;101583.41;5075157;28;20392;-86
2021/09/01 04:39:03;;;;;;;34.33;12.55;;;;;;;12.63;100.00;101589.47;5076767;28;20025;-86
2021/09/01 04:41:28;;;;;;;33.03;12.50;;;;;;;12.64;100.00;101583.38;5076439;28;20447;-86
2021/09/01 04:43:53;;;;;;;33.15;11.90;;;;;;;12.67;100.00;101581.59;5076787;28;20024;-86
2021/09/01 04:46:19;;;;;;;35.55;11.80;;;;;;;12.67;100.00;101581.59;5075033;28;20051;-86
2021/09/01 04:48:44;;;;;;;41.17;12.60;;;;;;;12.62;100.00;101588.59;5075142;28;20020;-86
2021/09/01 04:51:09;;;;;;;28.33;11.48;;;;;;;12.64;100.00;101581.63;5075038;28;20098;-86
2021/09/01 04:53:34;;;;;;;37.28;11.45;;;;;;;12.67;100.00;101578.13;5076595;28;20024;-86
2021/09/01 04:56:00;;;;;;;41.25;12.43;;;;;;;12.65;100.00;101583.38;5074946;28;20036;-86
2021/09/01 04:58:25;;;;;;;32.78;11.77;;;;;;;12.65;100.00;101585.97;5076150;28;20056;-86
2021/09/01 05:00:50;;;;;;;31.52;10.98;;;;;;;12.61;100.00;101589.47;5075211;28;20066;-86
2021/09/01 05:03:15;;;;;;;38.85;11.30;;;;;;;12.62;100.00;101592.91;5075146;28;20381;-87
2021/09/01 05:05:41;;;;;;;32.90;11.68;;;;;;;12.60;100.00;101594.69;5074915;28;20024;-86
2021/09/01 05:08:06;;;;;;;29.52;11.10;;;;;;;12.61;100.00;101591.19;5074952;28;20122;-86
2021/09/01 05:10:31;;;;;;;37.17;11.60;;;;;;;12.61;100.00;101583.41;5074954;28;20021;-87
2021/09/01 05:12:57;;;;;;;24.13;10.05;;;;;;;12.61;100.00;101596.41;5075152;28;20025;-87
2021/09/01 05:15:23;;;;;;;31.95;10.93;;;;;;;12.60;100.00;101600.75;5076183;28;20044;-86
2021/09/01 05:17:48;;;;;;;31.45;11.25;;;;;;;12.62;100.00;101596.41;5076019;28;20475;-87
2021/09/01 05:20:15;;;;;;;29.48;10.55;;;;;;;12.57;100.00;101595.59;5074469;28;20030;-86
2021/09/01 05:22:45;;;;;;;27.70;10.27;;;;;;;12.56;100.00;101603.38;5075834;28;20017;-86
2021/09/01 05:25:13;;;;;;;27.67;9.82;;;;;;;12.59;100.00;101599.03;5074524;28;20048;-86
2021/09/01 05:27:41;;;;;;;29.80;10.10;;;;;;;12.56;100.00;101599.06;5075932;28;20388;-86
2021/09/01 05:30:12;;;;;;;25.75;10.60;;;;;;;12.61;100.00;101612.03;5075181;28;20024;-86
2021/09/01 05:32:39;;;;;;;21.35;9.38;;;;;;;12.61;100.00;101609.41;5075568;28;20024;-86
2021/09/01 05:35:06;;;;;;;23.17;8.30;;;;;;;12.67;100.00;101609.34;5074552;28;20030;-87
2021/09/01 05:37:31;;;;;;;25.15;8.80;;;;;;;12.66;100.00;101612.84;5074348;28;20119;-87
2021/09/01 05:39:59;;;;;;;21.83;8.55;;;;;;;12.65;100.00;101621.50;5074340;28;20116;-86
2021/09/01 05:42:27;;;;;;;21.25;8.02;;;;;;;12.65;100.00;101614.59;5074179;28;20024;-86
2021/09/01 05:44:54;;;;;;;20.83;7.88;;;;;;;12.72;100.00;101624.94;5074291;28;20055;-86
2021/09/01 05:47:19;;;;;;;27.92;8.93;;;;;;;12.75;100.00;101622.31;5075385;28;20103;-86
2021/09/01 05:49:47;;;;;;;22.52;7.60;;;;;;;12.89;100.00;101617.81;5075120;28;20116;-87
2021/09/01 05:52:13;;;;;;;27.83;7.63;;;;;;;12.81;100.00;101622.25;5074371;28;20024;-87
2021/09/01 05:54:41;;;;;;;22.10;7.00;;;;;;;12.98;100.00;101625.53;5073904;28;20115;-87
2021/09/01 05:57:13;;;;;;;20.10;6.85;;;;;;;13.12;100.00;101618.41;5073885;28;20032;-87
2021/09/01 05:59:46;;;;;;;23.77;7.30;;;;;;;13.12;100.00;101622.78;5073814;28;20048;-87
2021/09/01 06:02:20;;;;;;;18.67;6.67;;;;;;;13.20;100.00;101627.88;5073933;28;20035;-87
2021/09/01 06:04:46;;;;;;;19.75;7.10;;;;;;;13.28;100.00;101621.72;5073903;28;20107;-87
2021/09/01 06:07:16;;;;;;;20.48;6.93;;;;;;;13.31;100.00;101626.91;5074065;28;20028;-87
2021/09/01 06:09:43;;;;;;;20.77;6.75;;;;;;;13.43;100.00;101631.09;5075151;28;20548;-87
2021/09/01 06:12:13;;;;;;;21.52;7.15;;;;;;;13.44;100.00;101631.97;5075081;28;20108;-87
2021/09/01 06:14:39;;;;;;;21.42;7.22;;;;;;;13.55;100.00;101638.75;5073692;28;20071;-87
2021/09/01 06:17:04;;;;;;;17.40;6.13;;;;;;;13.58;100.00;101643.09;5073489;28;20025;-87
2021/09/01 06:19:29;;;;;;;18.27;7.00;;;;;;;13.61;100.00;101649.97;5073577;28;20036;-87
2021/09/01 06:21:54;;;;;;;16.92;6.65;;;;;;;13.74;100.00;101647.19;5075172;28;20552;-86
2021/09/01 06:24:20;;;;;;;19.52;6.57;;;;;;;13.80;100.00;101641.91;5073405;28;20024;-87
2021/09/01 06:26:45;;;;;;;22.55;8.38;;;;;;;13.91;100.00;101651.31;5073492;28;20032;-87
2021/09/01 06:29:10;;;;;;;18.63;7.30;;;;;;;13.88;100.00;101649.59;5073318;28;20477;-86
2021/09/01 06:31:38;;;;;;;19.58;6.63;;;;;;;14.00;100.00;101649.41;5072365;28;20028;-87
2021/09/01 06:34:03;;;;;;;14.85;5.82;;;;;;;14.04;100.00;101653.72;5073383;28;20078;-87
2021/09/01 06:36:28;;;;;;;18.23;6.68;;;;;;;14.00;100.00;101648.56;5074602;28;20028;-87
2021/09/01 06:38:54;;;;;;;23.13;7.95;;;;;;;13.95;100.00;101650.41;5073121;28;20094;-87
2021/09/01 06:41:19;;;;;;;20.35;7.22;;;;;;;13.88;100.00;101652.19;5072998;28;20384;-87
2021/09/01 06:43:44;;;;;;;18.10;6.45;;;;;;;14.09;100.00;101652.78;5073102;28;20028;-88
2021/09/01 06:46:09;;;;;;;20.13;7.30;;;;;;;13.91;100.00;101644.34;5072918;28;20024;-88
2021/09/01 06:48:35;;;;;;;18.80;7.93;;;;;;;14.18;100.00;101642.22;5072837;28;20029;-88
2021/09/01 06:51:00;;;;;;;20.00;6.97;;;;;;;14.38;100.00;101645.38;5072775;28;20377;-88
2021/09/01 06:53:25;;;;;;;21.83;7.20;;;;;;;14.59;100.00;101645.91;5073991;28;20025;-88
2021/09/01 06:55:50;;;;;;;21.35;6.95;;;;;;;14.70;100.00;101641.38;5072939;28;20028;-87
2021/09/01 06:58:17;;;;;;;22.25;8.25;;;;;;;14.63;100.00;101645.84;5072920;28;20396;-88
2021/09/01 07:00:42;;;;;;;22.45;9.27;;;;;;;14.53;100.00;101648.63;5072758;28;20020;-88
2021/09/01 07:03:08;;;;;;;22.27;9.48;;;;;;;14.48;100.00;101641.69;5072777;28;20021;-88
2021/09/01 07:05:33;;;;;;;28.88;9.93;;;;;;;14.68;100.00;101643.13;5072592;28;20070;-89
2021/09/01 07:07:58;;;;;;;26.02;10.57;;;;;;;14.67;100.00;101647.50;5074090;28;20099;-88
2021/09/01 07:10:23;;;;;;;23.08;10.18;;;;;;;14.69;100.00;101644.88;5072529;28;20472;-89
2021/09/01 07:12:49;;;;;;;26.55;10.27;;;;;;;14.91;100.00;101637.50;5072397;28;20025;-89
2021/09/01 07:15:14;;;;;;;22.77;9.95;;;;;;;15.18;100.00;101639.56;5072371;28;20099;-88
2021/09/01 07:17:41;;;;;;;26.35;9.05;;;;;;;15.35;100.00;101651.44;5074047;28;20032;-89
2021/09/01 07:20:12;;;;;;;21.52;9.27;;;;;;;15.39;100.00;101651.34;5072595;28;20070;-89
2021/09/01 07:22:38;;;;;;;15.70;8.25;;;;;;;15.63;100.00;101652.56;5072637;28;20024;-89
2021/09/01 07:25:05;;;;;;;25.10;8.13;;;;;;;15.45;100.00;101657.31;5073149;28;20032;-89
2021/09/01 07:27:30;;;;;;;19.42;8.27;;;;;;;15.70;100.00;101653.34;5073404;28;20036;-88
2021/09/01 07:29:55;;;;;;;19.02;9.02;;;;;;;16.00;100.00;101657.00;5072228;28;20039;-89
2021/09/01 07:32:20;;;;;;;16.30;7.72;;;;;;;16.26;100.00;101653.78;5072302;28;20476;-90
2021/09/01 07:34:46;;;;;;;19.15;8.48;;;;;;;17.71;100.00;101661.25;5073778;28;20111;-90
2021/09/01 07:37:12;;;;;;;19.23;8.52;;;;;;;17.22;100.00;101657.44;5073474;28;20021;-90
2021/09/01 07:39:37;;;;;;;19.30;8.57;;;;;;;17.52;100.00;101654.81;5072323;28;20028;-90
2021/09/01 07:42:03;;;;;;;15.50;7.25;;;;;;;17.26;100.00;101651.19;5072079;28;20374;-90
2021/09/01 07:44:28;;;;;;;16.77;6.30;;;;;;;18.11;100.00;101660.03;5072554;28;20028;-91
2021/09/01 07:46:53;;;;;;;15.68;6.97;;;;;;;17.86;100.00;101659.94;5072403;28;20466;-90
2021/09/01 07:49:18;;;;;;;17.52;6.70;;;;;;;18.51;100.00;101656.09;5072978;28;20032;-88
2021/09/01 07:51:44;;;;;;;19.83;7.38;;;;;;;18.94;100.00;101657.28;5072221;28;20392;-89
2021/09/01 07:54:11;;;;;;;15.32;6.60;;;;;;;19.31;100.00;101659.44;5072144;28;20133;-88
2021/09/01 07:56:37;;;;;;;17.60;6.88;;;;;;;19.40;100.00;101663.50;5072270;28;20029;-88
2021/09/01 07:59:03;;;;;;;12.60;6.45;;;;;;;20.15;100.00;101671.13;5072221;28;20025;-88
2021/09/01 08:01:28;;;;;;;13.77;6.53;;;;;;;19.78;100.00;101662.91;5072572;28;20023;-88
2021/09/01 08:03:53;;;;;;;14.38;6.32;;;;;;;20.21;100.00;101668.25;5072141;28;20400;-88
2021/09/01 08:06:19;;;;;;;12.60;5.72;;;;;;;20.07;100.00;101670.56;5073092;28;20032;-89
2021/09/01 08:08:44;;;;;;;17.65;6.15;;;;;;;20.27;100.00;101670.63;5072252;28;20032;-89
2021/09/01 08:11:09;;;;;;;13.38;5.43;;;;;;;20.56;100.00;101674.69;5072188;28;20509;-90
2021/09/01 08:13:35;;;;;;;13.50;5.53;;;;;;;20.65;99.50;101678.72;5071859;28;20027;-90
2021/09/01 08:16:00;;;;;;;16.85;6.40;;;;;;;20.14;99.68;101675.53;5091801;22;20033;-83
2021/09/01 08:18:25;;;;;;;15.60;5.60;;;;;;;20.26;100.00;101687.38;5053304;28;20378;-84
2021/09/01 08:20:51;;;;;;;13.48;5.35;;;;;;;20.72;98.52;101692.50;5053463;28;20116;-83
2021/09/01 08:23:16;;;;;;;12.95;5.82;;;;;;;20.55;98.37;101686.19;5052960;28;20087;-84
2021/09/01 08:25:41;;;;;;;11.43;5.30;;;;;;;20.72;98.27;101690.75;5054181;28;20108;-84
2021/09/01 08:28:07;;;;;;;11.27;5.45;;;;;;;20.81;96.61;101690.38;5053399;28;20048;-84
2021/09/01 08:30:32;;;;;;;12.48;5.88;;;;;;;20.74;98.20;101693.31;5054013;28;20070;-83
2021/09/01 08:32:57;;;;;;;12.88;5.78;;;;;;;21.18;95.58;101695.78;5053267;28;20036;-83
2021/09/01 08:35:23;;;;;;;11.75;5.57;;;;;;;20.87;95.57;101689.22;5055164;28;20074;-83
2021/09/01 08:37:49;;;;;;;11.82;4.97;;;;;;;21.19;94.36;101694.88;5053712;28;20036;-84
2021/09/01 08:40:15;;;;;;;11.95;4.70;;;;;;;21.41;91.13;101687.75;5053264;28;20067;-84
2021/09/01 08:42:41;;;;;;;11.13;4.22;;;;;;;21.34;88.68;101697.69;5054143;28;20135;-84
2021/09/01 08:45:07;;;;;;;11.93;4.20;;;;;;;21.67;87.67;101698.88;5053940;28;20028;-83
2021/09/01 08:47:35;;;;;;;11.43;4.80;;;;;;;21.45;91.81;101689.28;5054733;28;20029;-84
2021/09/01 08:50:00;;;;;;;11.82;4.97;;;;;;;21.93;85.93;101695.88;5052548;28;20032;-84
2021/09/01 08:52:25;;;;;;;11.20;4.43;;;;;;;22.51;83.81;101702.78;5052725;28;20500;-84
2021/09/01 08:54:51;;;;;;;10.18;4.35;;;;;;;22.27;81.60;101700.41;5056869;28;20036;-84
2021/09/01 08:57:16;;;;;;;11.02;4.30;;;;;;;21.83;85.33;101700.75;5057690;28;20043;-84
2021/09/01 08:59:42;;;;;;;10.93;4.63;;;;;;;22.02;82.44;101690.16;5056255;28;20020;-84
2021/09/01 09:02:07;;;;;;;8.90;4.30;;;;;;;21.95;82.97;101687.84;5055815;28;20267;-84
2021/09/01 09:04:34;;;;;;;10.43;4.20;;;;;;;22.44;78.59;101680.22;5056296;28;20025;-84
2021/09/01 09:07:03;;;;;;;9.93;4.38;;;;;;;22.07;80.22;101679.34;5055714;28;20408;-84
2021/09/01 09:09:30;;;;;;;11.73;4.93;;;;;;;22.03;84.00;101675.16;5060152;28;20112;-84
2021/09/01 09:11:57;;;;;;;11.57;5.50;;;;;;;22.58;81.72;101672.44;5056685;28;20025;-84
2021/09/01 09:14:32;;;;;;;11.88;4.82;;;;;;;23.02;76.96;101671.09;5055924;28;20362;-84
2021/09/01 09:17:12;;;;;;;9.48;4.22;;;;;;;23.15;75.21;101678.34;5055254;28;20078;-84
2021/09/01 09:19:51;;;;;;;10.07;4.32;;;;;;;23.31;74.45;101677.50;5057154;28;20078;-84
2021/09/01 09:22:23;;;;;;;10.55;4.35;;;;;;;23.22;72.41;101670.06;5057344;28;20025;-84
2021/09/01 09:25:19;;;;;;;10.60;4.72;;;;;;;23.25;71.64;101677.84;5057319;28;20037;-84
2021/09/01 09:27:45;;;;;;;12.05;4.47;;;;;;;23.46;73.78;101671.38;5043176;28;20033;-84
2021/09/01 09:30:33;;;;;;;11.27;4.68;;;;;;;23.31;72.73;101677.50;5058455;28;20059;-83
2021/09/01 09:33:15;;;;;;;12.38;4.80;;;;;;;23.12;72.84;101691.72;5059209;28;20060;-84
2021/09/01 09:35:58;;;;;;;12.52;5.43;;;;;;;22.82;72.80;101695.94;5057814;28;20025;-84
2021/09/01 09:38:42;;;;;;;11.05;4.70;;;;;;;23.48;71.38;101684.53;5058131;28;20028;-83
2021/09/01 09:41:24;;;;;;;12.80;4.30;;;;;;;22.88;73.59;101685.91;5055958;28;20025;-83
2021/09/01 09:43:52;;;;;;;10.43;4.65;;;;;;;22.86;71.95;101686.91;5054631;28;20115;-84
2021/09/01 09:46:18;;;;;;;8.80;4.60;;;;;;;23.03;73.29;101684.28;5055781;28;20035;-84
2021/09/01 09:48:45;;;;;;;10.23;4.00;;;;;;;23.38;73.07;101689.47;5054652;28;20107;-84
2021/09/01 09:51:12;;;;;;;13.10;4.57;;;;;;;23.34;73.21;101691.44;5054394;28;20025;-84
2021/09/01 09:53:47;;;;;;;13.75;4.85;;;;;;;24.26;70.49;101688.13;5054450;28;20025;-83
2021/09/01 09:56:25;;;;;;;8.35;4.03;;;;;;;24.71;70.87;101684.59;5054562;28;20452;-84
2021/09/01 09:58:53;;;;;;;9.93;3.85;;;;;;;24.77;68.48;101684.22;5054748;28;20025;-84
2021/09/01 10:01:20;;;;;;;11.38;3.88;;;;;;;24.13;72.70;101682.66;5054906;28;20112;-84
2021/09/01 10:03:46;;;;;;;9.75;4.43;;;;;;;23.99;68.26;101690.56;5056064;28;20025;-84
2021/09/01 10:06:14;;;;;;;12.05;4.78;;;;;;;23.52;71.10;101686.94;5053474;28;20481;-84
2021/09/01 10:08:40;;;;;;;10.07;3.97;;;;;;;24.37;69.06;101690.16;5054355;28;20063;-84
2021/09/01 10:11:09;;;;;;;10.00;4.57;;;;;;;24.45;70.11;101690.63;5054457;28;20053;-84
2021/09/01 10:13:38;;;;;;;13.13;4.50;;;;;;;24.30;68.03;101700.28;5054762;28;20021;-84
2021/09/01 10:16:21;;;;;;;9.98;4.38;;;;;;;24.64;68.12;101693.88;5056483;28;20029;-84
2021/09/01 10:18:53;;;;;;;9.40;4.30;;;;;;;25.25;65.37;101703.47;5054551;28;20025;-84
2021/09/01 10:21:19;;;;;;;8.98;4.05;;;;;;;24.16;68.45;101701.06;5054651;28;20021;-84
2021/09/01 10:23:46;;;;;;;11.23;5.07;;;;;;;24.57;67.37;101703.16;5056646;28;20025;-84
2021/09/01 10:26:31;;;;;;;13.57;4.72;;;;;;;24.68;69.49;101697.19;5055275;28;20020;-84
2021/09/01 10:29:01;;;;;;;10.95;4.50;;;;;;;24.92;69.37;101690.41;5054522;28;20120;-84
2021/09/01 10:31:35;;;;;;;8.90;4.05;;;;;;;24.08;69.85;101704.16;5054950;28;20083;-84
2021/09/01 10:34:19;;;;;;;11.40;4.55;;;;;;;24.16;67.78;101698.41;5058111;28;20025;-84
2021/09/01 10:36:48;;;;;;;13.77;4.40;;;;;;;24.76;68.04;101693.16;5056408;28;20028;-84
2021/09/01 10:39:27;;;;;;;12.05;4.30;;;;;;;24.46;68.59;101692.31;5054472;28;20028;-84
2021/09/01 10:41:53;;;;;;;11.35;4.97;;;;;;;24.12;67.95;101687.13;5056114;28;20029;-83
2021/09/01 10:44:41;;;;;;;8.52;4.18;;;;;;;24.84;66.45;101697.97;5054525;28;20025;-83
2021/09/01 10:47:07;;;;;;;12.45;4.70;;;;;;;24.43;69.39;101700.44;5057666;28;20477;-83
2021/09/01 10:49:55;;;;;;;11.32;4.85;;;;;;;25.13;65.61;101695.41;5054898;28;20074;-84
2021/09/01 10:52:21;;;;;;;11.63;4.13;;;;;;;25.67;62.99;101696.41;5053914;28;20024;-84
2021/09/01 10:54:48;;;;;;;10.50;4.88;;;;;;;23.74;74.43;101701.66;5055000;28;20051;-84
2021/09/01 10:57:25;;;;;;;15.15;4.70;;;;;;;24.91;67.47;101699.34;5053455;28;20031;-84
2021/09/01 10:59:51;;;;;;;10.55;4.80;;;;;;;25.09;63.98;101693.84;5054033;28;20032;-83
2021/09/01 11:02:19;;;;;;;11.18;4.53;;;;;;;25.20;65.42;101699.38;5054155;28;20021;-84
2021/09/01 11:04:49;;;;;;;11.60;4.30;;;;;;;24.99;68.30;101690.91;5053777;28;20469;-84
2021/09/01 11:07:25;;;;;;;10.10;4.75;;;;;;;24.64;67.77;101693.03;5053599;28;20032;-84
2021/09/01 11:09:55;;;;;;;9.25;4.82;;;;;;;24.97;67.61;101680.38;5053691;28;20032;-84